createdAt,value
2023-03-28T00:00:18.772Z,3.25
2023-03-28T00:02:45.453Z,3.10
2023-03-28T00:05:12.052Z,3.28
2023-03-28T00:07:39.725Z,2.85
2023-03-28T00:10:07.639Z,2.95
2023-03-28T00:12:34.149Z,3.00
2023-03-28T00:15:04.222Z,2.70
2023-03-28T00:17:30.860Z,2.83
2023-03-28T00:19:57.664Z,2.80
2023-03-28T00:22:24.125Z,2.83
2023-03-28T00:24:51.639Z,2.80
2023-03-28T00:27:18.349Z,3.00
2023-03-28T00:29:44.818Z,2.97
2023-03-28T00:32:11.282Z,2.88
2023-03-28T00:34:37.821Z,3.17
2023-03-28T00:37:04.723Z,2.58
2023-03-28T00:39:31.561Z,2.53
2023-03-28T00:42:01.460Z,2.72
2023-03-28T00:44:54.772Z,2.50
2023-03-28T00:47:47.007Z,2.50
2023-03-28T00:50:23.661Z,2.70
2023-03-28T00:53:02.170Z,2.23
2023-03-28T00:55:43.859Z,2.70
2023-03-28T00:58:13.065Z,2.33
2023-03-28T01:00:41.414Z,2.60
2023-03-28T01:03:09.087Z,2.88
2023-03-28T01:05:36.406Z,2.47
2023-03-28T01:08:23.395Z,3.08
2023-03-28T01:10:50.400Z,3.00
2023-03-28T01:13:19.333Z,3.00
2023-03-28T01:15:48.953Z,3.30
2023-03-28T01:18:16.256Z,2.60
2023-03-28T01:21:28.082Z,2.85
2023-03-28T01:24:15.808Z,2.60
2023-03-28T01:26:56.380Z,2.78
2023-03-28T01:29:54.785Z,2.85
2023-03-28T01:32:41.165Z,2.70
2023-03-28T01:35:33.323Z,2.72
2023-03-28T01:38:32.467Z,3.00
2023-03-28T01:41:22.097Z,3.05
2023-03-28T01:43:58.789Z,3.35
2023-03-28T01:46:31.614Z,3.17
2023-03-28T01:49:18.326Z,3.25
2023-03-28T01:51:57.967Z,3.15
2023-03-28T01:54:36.555Z,3.88
2023-03-28T01:57:21.697Z,3.75
2023-03-28T01:59:53.941Z,3.17
2023-03-28T02:02:23.983Z,3.40
2023-03-28T02:04:51.975Z,3.17
2023-03-28T02:07:28.742Z,2.97
2023-03-28T02:09:56.328Z,3.40
2023-03-28T02:12:26.536Z,3.13
2023-03-28T02:14:54.296Z,3.47
2023-03-28T02:17:21.839Z,3.45
2023-03-28T02:19:59.382Z,3.75
2023-03-28T02:22:31.162Z,3.30
2023-03-28T02:24:57.725Z,2.90
2023-03-28T02:27:24.264Z,3.03
2023-03-28T02:29:54.385Z,3.28
2023-03-28T02:32:21.979Z,3.05
2023-03-28T02:34:50.287Z,2.70
2023-03-28T02:37:55.980Z,2.27
2023-03-28T02:40:31.538Z,2.50
2023-03-28T02:43:08.511Z,2.45
2023-03-28T02:46:09.709Z,1.70
2023-03-28T02:48:56.714Z,2.30
2023-03-28T02:51:34.717Z,2.30
2023-03-28T02:54:12.206Z,2.03
2023-03-28T02:57:05.238Z,2.10
2023-03-28T02:59:38.289Z,1.85
2023-03-28T03:02:05.023Z,2.05
2023-03-28T03:04:31.602Z,1.60
2023-03-28T03:07:02.048Z,1.30
2023-03-28T03:09:28.735Z,1.08
2023-03-28T03:11:55.226Z,1.23
2023-03-28T03:14:22.436Z,1.10
2023-03-28T03:16:48.943Z,0.87
2023-03-28T03:19:15.593Z,1.10
2023-03-28T03:21:42.411Z,0.80
2023-03-28T03:24:09.882Z,0.90
2023-03-28T03:26:36.477Z,0.70
2023-03-28T03:29:03.217Z,0.60
2023-03-28T03:31:30.064Z,0.50
2023-03-28T03:33:56.714Z,0.60
2023-03-28T03:36:24.038Z,1.00
2023-03-28T03:38:50.717Z,0.60
2023-03-28T03:41:18.274Z,0.57
2023-03-28T03:43:47.107Z,0.70
2023-03-28T03:46:13.840Z,0.60
2023-03-28T03:48:49.499Z,0.52
2023-03-28T03:51:16.941Z,0.55
2023-03-28T03:53:43.894Z,0.73
2023-03-28T03:56:10.878Z,1.13
2023-03-28T03:58:37.393Z,1.10
2023-03-28T04:01:03.959Z,0.90
2023-03-28T04:03:31.599Z,1.13
2023-03-28T04:05:58.554Z,1.20
2023-03-28T04:08:25.385Z,1.10
2023-03-28T04:10:52.225Z,0.98
2023-03-28T04:13:18.793Z,1.00
2023-03-28T04:15:47.303Z,1.40
2023-03-28T04:18:15.479Z,1.37
2023-03-28T04:20:43.186Z,1.30
2023-03-28T04:23:09.829Z,1.50
2023-03-28T04:25:36.367Z,1.20
2023-03-28T04:28:03.895Z,1.40
2023-03-28T04:30:31.715Z,1.33
2023-03-28T04:32:59.028Z,1.38
2023-03-28T04:35:25.670Z,1.60
2023-03-28T04:37:53.737Z,1.23
2023-03-28T04:40:21.653Z,1.30
2023-03-28T04:42:49.723Z,1.70
2023-03-28T04:45:18.016Z,1.33
2023-03-28T04:47:44.895Z,2.33
2023-03-28T04:50:13.015Z,1.90
2023-03-28T04:52:40.989Z,1.98
2023-03-28T04:55:07.898Z,1.70
2023-03-28T04:57:35.035Z,2.33
2023-03-28T05:00:03.751Z,2.40
2023-03-28T05:02:30.470Z,2.33
2023-03-28T05:04:57.001Z,2.15
2023-03-28T05:07:25.526Z,2.03
2023-03-28T05:09:51.975Z,1.38
2023-03-28T05:12:18.741Z,2.25
2023-03-28T05:14:45.375Z,1.92
2023-03-28T05:17:13.075Z,2.47
2023-03-28T05:19:39.562Z,2.30
2023-03-28T05:22:06.050Z,2.33
2023-03-28T05:24:33.329Z,2.35
2023-03-28T05:27:00.642Z,2.53
2023-03-28T05:29:27.163Z,2.15
2023-03-28T05:31:53.742Z,2.50
2023-03-28T05:34:21.393Z,1.95
2023-03-28T05:36:47.898Z,2.10
2023-03-28T05:39:14.835Z,1.92
2023-03-28T05:41:41.276Z,2.83
2023-03-28T05:44:07.846Z,2.77
2023-03-28T05:46:34.334Z,1.73
2023-03-28T05:49:00.812Z,2.10
2023-03-28T05:51:27.356Z,1.88
2023-03-28T05:53:53.833Z,1.95
2023-03-28T05:56:21.032Z,1.80
2023-03-28T05:58:48.368Z,1.77
2023-03-28T06:01:18.076Z,1.60
2023-03-28T06:03:45.583Z,1.90
2023-03-28T06:06:12.402Z,2.42
2023-03-28T06:08:39.072Z,1.57
2023-03-28T06:11:05.759Z,2.47
2023-03-28T06:13:32.322Z,2.60
2023-03-28T06:15:58.800Z,2.40
2023-03-28T06:18:25.880Z,2.47
2023-03-28T06:20:52.464Z,1.70
2023-03-28T06:23:18.915Z,2.83
2023-03-28T06:25:45.391Z,1.70
2023-03-28T06:28:11.984Z,1.75
2023-03-28T06:30:40.047Z,1.38
2023-03-28T06:33:06.931Z,1.20
2023-03-28T06:35:34.146Z,1.33
2023-03-28T06:38:00.993Z,2.28
2023-03-28T06:40:27.642Z,1.40
2023-03-28T06:42:54.294Z,1.70
2023-03-28T06:45:20.930Z,1.77
2023-03-28T06:47:49.687Z,1.90
2023-03-28T06:50:16.518Z,1.73
2023-03-28T06:52:42.986Z,1.85
2023-03-28T06:55:09.673Z,1.00
2023-03-28T06:57:36.313Z,1.47
2023-03-28T07:00:03.501Z,0.95
2023-03-28T07:02:30.288Z,1.80
2023-03-28T07:04:56.878Z,1.60
2023-03-28T07:07:23.382Z,2.22
2023-03-28T07:09:51.859Z,1.50
2023-03-28T07:12:18.920Z,1.42
2023-03-28T07:14:46.957Z,0.90
2023-03-28T07:17:14.063Z,1.30
2023-03-28T07:19:40.608Z,1.05
2023-03-28T07:22:08.623Z,0.90
2023-03-28T07:24:35.412Z,1.20
2023-03-28T07:27:14.752Z,1.30
2023-03-28T07:29:42.413Z,1.20
2023-03-28T07:32:09.005Z,1.10
2023-03-28T07:34:35.543Z,1.07
2023-03-28T07:37:02.246Z,1.58
2023-03-28T07:39:32.408Z,0.80
2023-03-28T07:41:58.868Z,0.85
2023-03-28T07:44:25.354Z,1.40
2023-03-28T07:46:53.139Z,0.90
2023-03-28T07:49:21.068Z,1.20
2023-03-28T07:51:48.021Z,1.40
2023-03-28T07:54:17.793Z,1.10
2023-03-28T07:56:45.879Z,1.25
2023-03-28T07:59:13.881Z,1.20
2023-03-28T08:01:45.104Z,1.13
2023-03-28T08:04:13.005Z,1.00
2023-03-28T08:06:40.478Z,1.10
2023-03-28T08:09:08.922Z,1.20
2023-03-28T08:11:36.344Z,1.03
2023-03-28T08:14:03.859Z,0.70
2023-03-28T08:16:30.708Z,0.90
2023-03-28T08:19:10.061Z,1.05
2023-03-28T08:21:38.254Z,0.88
2023-03-28T08:24:05.733Z,0.60
2023-03-28T08:26:32.251Z,0.90
2023-03-28T08:28:59.015Z,1.30
2023-03-28T08:31:27.034Z,1.05
2023-03-28T08:33:54.521Z,1.10
2023-03-28T08:36:23.609Z,0.97
2023-03-28T08:38:50.882Z,2.25
2023-03-28T08:41:55.192Z,1.48
2023-03-28T08:44:37.608Z,0.75
2023-03-28T08:47:09.489Z,0.75
2023-03-28T08:49:46.600Z,1.03
2023-03-28T08:52:16.492Z,0.77
2023-03-28T08:54:54.955Z,1.00
2023-03-28T08:57:25.729Z,0.90
2023-03-28T09:00:14.993Z,1.13
2023-03-28T09:02:42.762Z,1.13
2023-03-28T09:05:33.153Z,1.00
2023-03-28T09:08:53.437Z,0.63
2023-03-28T09:11:40.608Z,0.63
2023-03-28T09:14:13.326Z,1.00
2023-03-28T09:16:55.193Z,0.80
2023-03-28T09:19:21.723Z,0.80
2023-03-28T09:22:12.532Z,0.73
2023-03-28T09:24:55.552Z,0.70
2023-03-28T09:27:22.042Z,0.60
2023-03-28T09:29:48.560Z,0.60
2023-03-28T09:32:26.759Z,0.70
2023-03-28T09:34:53.348Z,0.85
2023-03-28T09:37:32.610Z,0.80
2023-03-28T09:40:26.444Z,0.68
2023-03-28T09:42:57.162Z,0.83
2023-03-28T09:45:23.898Z,0.73
2023-03-28T09:47:50.527Z,0.50
2023-03-28T09:50:18.729Z,0.50
2023-03-28T09:52:46.708Z,0.90
2023-03-28T09:55:21.862Z,0.40
2023-03-28T09:58:14.960Z,0.63
2023-03-28T10:00:43.521Z,0.82
2023-03-28T10:03:29.087Z,0.88
2023-03-28T10:05:57.425Z,0.90
2023-03-28T10:08:28.633Z,0.50
2023-03-28T10:11:12.288Z,0.90
2023-03-28T10:13:46.045Z,0.80
2023-03-28T10:16:15.049Z,0.70
2023-03-28T10:18:42.405Z,1.10
2023-03-28T10:21:17.298Z,0.60
2023-03-28T10:23:52.523Z,0.60
2023-03-28T10:26:26.655Z,1.00
2023-03-28T10:28:55.175Z,0.68
2023-03-28T10:31:29.244Z,0.70
2023-03-28T10:34:00.095Z,0.50
2023-03-28T10:36:33.202Z,0.90
2023-03-28T10:39:01.592Z,0.70
2023-03-28T10:41:29.327Z,0.98
2023-03-28T10:43:56.956Z,0.60
2023-03-28T10:46:35.758Z,0.80
2023-03-28T10:49:05.012Z,0.98
2023-03-28T10:51:32.617Z,0.85
2023-03-28T10:54:03.056Z,0.70
2023-03-28T10:56:38.467Z,0.90
2023-03-28T10:59:07.843Z,0.80
2023-03-28T11:01:53.300Z,1.00
2023-03-28T11:04:35.181Z,0.90
2023-03-28T11:07:28.778Z,0.95
2023-03-28T11:10:22.169Z,0.52
2023-03-28T11:12:59.086Z,0.60
2023-03-28T11:15:56.586Z,0.30
2023-03-28T11:18:44.399Z,0.75
2023-03-28T11:21:48.619Z,0.63
2023-03-28T11:24:33.943Z,0.60
2023-03-28T11:27:24.668Z,0.40
2023-03-28T11:29:54.984Z,0.57
2023-03-28T11:32:32.055Z,0.50
2023-03-28T11:35:27.901Z,0.90
2023-03-28T11:38:14.415Z,0.80
2023-03-28T11:40:52.884Z,1.00
2023-03-28T11:43:36.081Z,0.90
2023-03-28T11:46:17.847Z,0.80
2023-03-28T11:49:06.803Z,1.00
2023-03-28T11:51:39.012Z,0.80
2023-03-28T11:54:32.281Z,0.80
2023-03-28T11:57:05.219Z,0.55
2023-03-28T11:59:52.769Z,0.50
2023-03-28T12:02:31.695Z,0.60
2023-03-28T12:05:26.204Z,0.40
2023-03-28T12:07:59.358Z,0.70
2023-03-28T12:10:28.540Z,0.70
2023-03-28T12:13:28.683Z,0.47
2023-03-28T12:16:10.090Z,0.70
2023-03-28T12:18:48.373Z,0.70
2023-03-28T12:21:34.954Z,0.70
2023-03-28T12:24:34.355Z,0.60
2023-03-28T12:27:14.700Z,0.80
2023-03-28T12:29:47.296Z,0.55
2023-03-28T12:32:44.575Z,1.40
2023-03-28T12:35:18.230Z,0.73
2023-03-28T12:38:06.492Z,0.90
2023-03-28T12:40:57.483Z,0.73
2023-03-28T12:43:36.031Z,1.10
2023-03-28T12:46:05.871Z,0.82
2023-03-28T12:48:54.523Z,0.80
2023-03-28T12:51:24.706Z,0.70
2023-03-28T12:54:14.661Z,1.00
2023-03-28T12:56:41.605Z,0.70
2023-03-28T12:59:38.728Z,1.10
2023-03-28T13:02:17.541Z,0.67
2023-03-28T13:05:03.913Z,0.93
2023-03-28T13:07:53.600Z,0.60
2023-03-28T13:10:45.464Z,0.90
2023-03-28T13:13:35.783Z,1.00
2023-03-28T13:16:06.549Z,0.80
2023-03-28T13:18:34.766Z,0.95
2023-03-28T13:21:04.419Z,0.85
2023-03-28T13:23:38.428Z,0.98
2023-03-28T13:26:07.033Z,1.05
2023-03-28T13:28:45.815Z,0.63
2023-03-28T13:31:20.912Z,0.68
2023-03-28T13:33:51.361Z,0.90
2023-03-28T13:36:23.735Z,0.70
2023-03-28T13:39:00.280Z,0.70
2023-03-28T13:41:41.855Z,0.83
2023-03-28T13:44:16.098Z,0.70
2023-03-28T13:46:45.400Z,0.40
2023-03-28T13:49:19.392Z,0.55
2023-03-28T13:51:54.949Z,0.65
2023-03-28T13:54:22.210Z,0.60
2023-03-28T13:56:49.730Z,0.70
2023-03-28T13:59:27.364Z,0.73
2023-03-28T14:01:56.344Z,1.00
2023-03-28T14:04:25.292Z,0.90
2023-03-28T14:06:53.241Z,0.70
2023-03-28T14:09:28.601Z,0.50
2023-03-28T14:11:58.155Z,0.77
2023-03-28T14:14:37.731Z,0.70
2023-03-28T14:17:06.918Z,0.75
2023-03-28T14:19:50.122Z,0.73
2023-03-28T14:22:21.504Z,0.80
2023-03-28T14:24:52.908Z,0.50
2023-03-28T14:27:40.046Z,0.77
2023-03-28T14:30:17.219Z,0.75
2023-03-28T14:33:07.138Z,1.03
2023-03-28T14:35:35.819Z,0.40
2023-03-28T14:38:05.550Z,0.93
2023-03-28T14:40:37.279Z,0.50
2023-03-28T14:43:10.733Z,0.65
2023-03-28T14:45:39.086Z,0.70
2023-03-28T14:48:08.685Z,0.43
2023-03-28T14:50:37.410Z,0.60
2023-03-28T14:53:06.659Z,0.73
2023-03-28T14:55:34.782Z,0.60
2023-03-28T14:58:02.362Z,0.60
2023-03-28T15:00:36.580Z,0.65
2023-03-28T15:03:06.094Z,0.68
2023-03-28T15:05:33.261Z,0.43
2023-03-28T15:08:04.757Z,0.47
2023-03-28T15:10:31.464Z,0.50
2023-03-28T15:13:07.685Z,0.50
2023-03-28T15:15:38.646Z,0.47
2023-03-28T15:18:11.852Z,0.30
2023-03-28T15:20:43.366Z,0.30
2023-03-28T15:23:16.843Z,0.50
2023-03-28T15:25:44.196Z,0.40
2023-03-28T15:28:16.230Z,0.50
2023-03-28T15:30:44.905Z,0.50
2023-03-28T15:33:18.866Z,0.32
2023-03-28T15:35:46.116Z,0.73
2023-03-28T15:38:12.540Z,0.50
2023-03-28T15:40:41.896Z,0.60
2023-03-28T15:43:28.172Z,0.70
2023-03-28T15:46:09.787Z,0.47
2023-03-28T15:48:36.753Z,0.70
2023-03-28T15:51:06.105Z,0.85
2023-03-28T15:53:32.858Z,0.45
2023-03-28T15:56:07.199Z,0.80
2023-03-28T15:58:34.469Z,0.63
2023-03-28T16:01:26.761Z,0.60
2023-03-28T16:04:15.870Z,0.45
2023-03-28T16:06:44.249Z,0.80
2023-03-28T16:09:18.739Z,0.70
2023-03-28T16:11:46.374Z,0.55
2023-03-28T16:14:17.829Z,0.80
2023-03-28T16:16:44.868Z,0.82
2023-03-28T16:19:21.670Z,0.80
2023-03-28T16:21:48.419Z,0.40
2023-03-28T16:24:15.047Z,0.93
2023-03-28T16:26:41.921Z,0.90
2023-03-28T16:29:08.500Z,0.80
2023-03-28T16:31:35.244Z,0.80
2023-03-28T16:34:01.958Z,0.93
2023-03-28T16:36:28.480Z,0.88
2023-03-28T16:38:54.974Z,1.57
2023-03-28T16:41:21.825Z,1.35
2023-03-28T16:43:48.321Z,1.20
2023-03-28T16:46:15.026Z,1.92
2023-03-28T16:48:41.709Z,1.13
2023-03-28T16:51:08.236Z,1.00
2023-03-28T16:53:36.123Z,1.50
2023-03-28T16:56:03.052Z,1.25
2023-03-28T16:58:30.234Z,1.30
2023-03-28T17:00:56.899Z,1.50
2023-03-28T17:03:24.448Z,1.50
2023-03-28T17:05:51.078Z,1.38
2023-03-28T17:08:17.657Z,1.55
2023-03-28T17:10:44.310Z,1.77
2023-03-28T17:13:12.617Z,1.38
2023-03-28T17:15:39.206Z,1.50
2023-03-28T17:18:05.902Z,1.13
2023-03-28T17:20:32.718Z,1.42
2023-03-28T17:23:00.574Z,1.23
2023-03-28T17:25:27.415Z,1.15
2023-03-28T17:27:53.999Z,1.20
2023-03-28T17:30:20.904Z,1.65
2023-03-28T17:32:47.711Z,1.70
2023-03-28T17:35:14.746Z,1.42
2023-03-28T17:37:41.720Z,1.80
2023-03-28T17:40:08.992Z,1.37
2023-03-28T17:42:35.523Z,1.42
2023-03-28T17:45:02.118Z,1.60
2023-03-28T17:47:28.776Z,1.92
2023-03-28T17:49:57.020Z,2.28
2023-03-28T17:52:24.372Z,2.03
2023-03-28T17:54:51.594Z,2.22
2023-03-28T17:57:18.603Z,1.73
2023-03-28T17:59:45.201Z,1.92
2023-03-28T18:02:11.813Z,2.30
2023-03-28T18:04:38.320Z,2.13
2023-03-28T18:07:16.244Z,2.25
2023-03-28T18:09:44.240Z,2.00
2023-03-28T18:12:11.407Z,2.20
2023-03-28T18:14:38.339Z,2.10
2023-03-28T18:17:05.864Z,3.17
2023-03-28T18:19:32.494Z,2.20
2023-03-28T18:21:59.116Z,2.60
2023-03-28T18:24:26.668Z,2.53
2023-03-28T18:26:53.310Z,2.42
2023-03-28T18:29:19.889Z,2.03
2023-03-28T18:31:47.732Z,1.92
2023-03-28T18:34:14.425Z,2.08
2023-03-28T18:36:41.972Z,2.25
2023-03-28T18:39:10.374Z,2.60
2023-03-28T18:41:40.011Z,2.40
2023-03-28T18:44:06.687Z,2.63
2023-03-28T18:46:34.553Z,2.70
2023-03-28T18:49:01.801Z,2.90
2023-03-28T18:51:28.860Z,2.53
2023-03-28T18:53:58.185Z,2.80
2023-03-28T18:56:24.627Z,2.92
2023-03-28T18:58:51.214Z,2.70
2023-03-28T19:01:18.672Z,3.35
2023-03-28T19:03:47.057Z,2.75
2023-03-28T19:06:15.369Z,4.27
2023-03-28T19:08:43.708Z,3.17
2023-03-28T19:11:13.290Z,2.63
2023-03-28T19:13:40.999Z,2.53
2023-03-28T19:16:13.225Z,2.33
2023-03-28T19:18:41.140Z,2.00
2023-03-28T19:21:08.884Z,2.42
2023-03-28T19:23:36.840Z,2.75
2023-03-28T19:26:05.693Z,2.67
2023-03-28T19:28:32.591Z,2.60
2023-03-28T19:31:01.656Z,2.50
2023-03-28T19:33:28.689Z,2.42
2023-03-28T19:35:56.005Z,2.17
2023-03-28T19:38:23.902Z,3.20
2023-03-28T19:40:52.215Z,2.60
2023-03-28T19:43:21.130Z,2.23
2023-03-28T19:45:48.597Z,2.47
2023-03-28T19:48:16.030Z,2.40
2023-03-28T19:50:43.365Z,2.30
2023-03-28T19:53:10.457Z,2.60
2023-03-28T19:55:37.439Z,2.17
2023-03-28T19:58:07.464Z,3.10
2023-03-28T20:00:34.198Z,3.17
2023-03-28T20:03:02.882Z,2.90
2023-03-28T20:05:29.732Z,3.13
2023-03-28T20:07:56.266Z,2.70
2023-03-28T20:10:22.732Z,3.05
2023-03-28T20:12:49.224Z,3.30
2023-03-28T20:15:15.922Z,3.17
2023-03-28T20:17:42.496Z,3.60
2023-03-28T20:20:10.224Z,3.30
2023-03-28T20:22:37.881Z,3.05
2023-03-28T20:25:04.992Z,3.13
2023-03-28T20:27:32.060Z,2.97
2023-03-28T20:29:58.631Z,3.00
2023-03-28T20:32:25.150Z,2.77
2023-03-28T20:34:51.654Z,2.47
2023-03-28T20:37:18.222Z,2.13
2023-03-28T20:39:47.141Z,2.15
2023-03-28T20:42:13.811Z,2.53
2023-03-28T20:44:40.705Z,2.53
2023-03-28T20:47:08.172Z,2.63
2023-03-28T20:49:36.007Z,2.28
2023-03-28T20:52:02.729Z,2.30
2023-03-28T20:54:29.466Z,2.42
2023-03-28T20:56:56.024Z,2.37
2023-03-28T20:59:23.823Z,2.20
2023-03-28T21:01:51.413Z,2.28
2023-03-28T21:04:17.976Z,2.10
2023-03-28T21:06:45.966Z,2.38
2023-03-28T21:09:15.633Z,2.27
2023-03-28T21:11:43.839Z,1.85
2023-03-28T21:14:13.269Z,2.17
2023-03-28T21:16:39.967Z,1.98
2023-03-28T21:19:06.717Z,2.13
2023-03-28T21:21:34.119Z,1.60
2023-03-28T21:24:03.917Z,2.17
2023-03-28T21:26:31.745Z,1.90
2023-03-28T21:28:59.304Z,2.88
2023-03-28T21:31:27.894Z,1.75
2023-03-28T21:33:57.190Z,2.00
2023-03-28T21:36:24.675Z,1.42
2023-03-28T21:38:51.431Z,2.05
2023-03-28T21:41:17.944Z,1.73
2023-03-28T21:43:44.672Z,1.67
2023-03-28T21:46:11.706Z,1.90
2023-03-28T21:48:39.210Z,1.67
2023-03-28T21:51:06.276Z,1.85
2023-03-28T21:53:34.991Z,1.77
2023-03-28T21:56:01.830Z,1.75
2023-03-28T21:58:30.864Z,2.10
2023-03-28T22:00:57.427Z,1.77
2023-03-28T22:03:24.739Z,1.90
2023-03-28T22:05:53.560Z,1.50
2023-03-28T22:08:22.139Z,1.50
2023-03-28T22:10:54.193Z,1.93
2023-03-28T22:13:21.291Z,2.30
2023-03-28T22:15:47.883Z,2.65
2023-03-28T22:18:15.829Z,2.55
2023-03-28T22:20:43.727Z,1.88
2023-03-28T22:23:10.759Z,1.70
2023-03-28T22:25:38.503Z,2.20
2023-03-28T22:28:08.284Z,1.60
2023-03-28T22:30:35.851Z,1.35
2023-03-28T22:33:03.959Z,1.50
2023-03-28T22:35:31.232Z,1.53
2023-03-28T22:37:59.956Z,1.48
2023-03-28T22:40:26.781Z,1.20
2023-03-28T22:42:54.122Z,1.00
2023-03-28T22:45:27.281Z,1.08
2023-03-28T22:47:53.858Z,1.27
2023-03-28T22:50:22.450Z,1.25
2023-03-28T22:52:52.855Z,1.30
2023-03-28T22:55:22.082Z,1.30
2023-03-28T22:57:51.211Z,1.30
2023-03-28T23:00:18.031Z,1.67
2023-03-28T23:02:44.596Z,1.40
2023-03-28T23:05:11.282Z,1.15
2023-03-28T23:07:38.074Z,1.10
2023-03-28T23:10:08.434Z,1.38
2023-03-28T23:12:35.143Z,1.20
2023-03-28T23:15:01.812Z,1.38
2023-03-28T23:17:28.478Z,1.17
2023-03-28T23:19:57.457Z,1.40
2023-03-28T23:22:24.173Z,1.30
2023-03-28T23:24:51.867Z,1.60
2023-03-28T23:27:19.210Z,1.80
2023-03-28T23:29:46.034Z,1.75
2023-03-28T23:32:12.575Z,1.75
2023-03-28T23:34:40.217Z,1.60
2023-03-28T23:37:07.122Z,1.70
2023-03-28T23:39:33.616Z,1.77
2023-03-28T23:42:00.147Z,1.60
2023-03-28T23:44:27.848Z,1.13
2023-03-28T23:46:56.220Z,2.10
2023-03-28T23:49:22.963Z,1.70
2023-03-28T23:51:49.795Z,1.70
2023-03-28T23:54:18.566Z,1.67
2023-03-28T23:56:46.743Z,2.47
2023-03-28T23:59:13.464Z,1.73
